sensor_id;sensor_type;location;lat;lon;timestamp;P1;durP1;ratioP1;P2;durP2;ratioP2
36189;SDS011;22232;50.914;13.858;2023-11-21T00:00:08;2.80;;;1.88;;
36189;SDS011;22232;50.914;13.858;2023-11-21T00:02:40;4.53;;;2.05;;
36189;SDS011;22232;50.914;13.858;2023-11-21T00:05:09;4.30;;;2.20;;
36189;SDS011;22232;50.914;13.858;2023-11-21T00:07:38;2.60;;;1.70;;
36189;SDS011;22232;50.914;13.858;2023-11-21T00:10:06;4.10;;;2.63;;
36189;SDS011;22232;50.914;13.858;2023-11-21T00:12:38;2.10;;;1.90;;
36189;SDS011;22232;50.914;13.858;2023-11-21T00:15:09;5.13;;;2.10;;
36189;SDS011;22232;50.914;13.858;2023-11-21T00:17:40;3.65;;;2.33;;
36189;SDS011;22232;50.914;13.858;2023-11-21T00:20:08;2.65;;;1.65;;
36189;SDS011;22232;50.914;13.858;2023-11-21T00:22:40;3.88;;;2.17;;
36189;SDS011;22232;50.914;13.858;2023-11-21T00:25:08;4.88;;;2.20;;
36189;SDS011;22232;50.914;13.858;2023-11-21T00:27:36;5.60;;;2.20;;
36189;SDS011;22232;50.914;13.858;2023-11-21T00:30:04;5.53;;;2.25;;
36189;SDS011;22232;50.914;13.858;2023-11-21T00:32:33;5.47;;;2.45;;
36189;SDS011;22232;50.914;13.858;2023-11-21T00:35:03;5.13;;;2.83;;
36189;SDS011;22232;50.914;13.858;2023-11-21T00:37:31;5.13;;;2.50;;
36189;SDS011;22232;50.914;13.858;2023-11-21T00:39:59;3.10;;;2.25;;
36189;SDS011;22232;50.914;13.858;2023-11-21T00:42:27;4.60;;;2.40;;
36189;SDS011;22232;50.914;13.858;2023-11-21T00:44:55;4.28;;;2.22;;
36189;SDS011;22232;50.914;13.858;2023-11-21T00:47:22;4.10;;;2.85;;
36189;SDS011;22232;50.914;13.858;2023-11-21T00:49:50;3.70;;;2.75;;
36189;SDS011;22232;50.914;13.858;2023-11-21T00:52:18;6.45;;;2.80;;
36189;SDS011;22232;50.914;13.858;2023-11-21T00:54:46;3.83;;;2.80;;
36189;SDS011;22232;50.914;13.858;2023-11-21T00:57:15;4.82;;;2.65;;
36189;SDS011;22232;50.914;13.858;2023-11-21T00:59:42;5.82;;;2.67;;
36189;SDS011;22232;50.914;13.858;2023-11-21T01:02:10;6.57;;;3.00;;
36189;SDS011;22232;50.914;13.858;2023-11-21T01:04:38;4.65;;;2.90;;
36189;SDS011;22232;50.914;13.858;2023-11-21T01:07:05;4.60;;;2.95;;
36189;SDS011;22232;50.914;13.858;2023-11-21T01:09:33;4.47;;;2.15;;
36189;SDS011;22232;50.914;13.858;2023-11-21T01:12:00;4.70;;;2.72;;
36189;SDS011;22232;50.914;13.858;2023-11-21T01:14:28;5.32;;;2.70;;
36189;SDS011;22232;50.914;13.858;2023-11-21T01:16:57;6.45;;;2.90;;
36189;SDS011;22232;50.914;13.858;2023-11-21T01:19:25;5.57;;;2.70;;
36189;SDS011;22232;50.914;13.858;2023-11-21T01:21:52;5.50;;;2.97;;
36189;SDS011;22232;50.914;13.858;2023-11-21T01:24:20;4.80;;;2.97;;
36189;SDS011;22232;50.914;13.858;2023-11-21T01:26:48;7.15;;;3.10;;
36189;SDS011;22232;50.914;13.858;2023-11-21T01:29:15;5.00;;;2.85;;
36189;SDS011;22232;50.914;13.858;2023-11-21T01:31:43;2.90;;;2.42;;
36189;SDS011;22232;50.914;13.858;2023-11-21T01:34:10;7.85;;;3.58;;
36189;SDS011;22232;50.914;13.858;2023-11-21T01:36:38;7.22;;;2.78;;
36189;SDS011;22232;50.914;13.858;2023-11-21T01:39:06;6.60;;;3.72;;
36189;SDS011;22232;50.914;13.858;2023-11-21T01:41:36;7.50;;;3.60;;
36189;SDS011;22232;50.914;13.858;2023-11-21T01:44:04;7.70;;;3.30;;
36189;SDS011;22232;50.914;13.858;2023-11-21T01:46:35;5.22;;;3.25;;
36189;SDS011;22232;50.914;13.858;2023-11-21T01:49:03;8.00;;;4.40;;
36189;SDS011;22232;50.914;13.858;2023-11-21T01:51:31;6.30;;;3.10;;
36189;SDS011;22232;50.914;13.858;2023-11-21T01:53:59;6.47;;;3.72;;
36189;SDS011;22232;50.914;13.858;2023-11-21T01:56:26;8.60;;;3.80;;
36189;SDS011;22232;50.914;13.858;2023-11-21T01:58:54;5.63;;;3.28;;
36189;SDS011;22232;50.914;13.858;2023-11-21T02:01:22;7.53;;;3.60;;
36189;SDS011;22232;50.914;13.858;2023-11-21T02:03:50;6.90;;;3.67;;
36189;SDS011;22232;50.914;13.858;2023-11-21T02:06:18;9.75;;;3.92;;
36189;SDS011;22232;50.914;13.858;2023-11-21T02:08:45;8.13;;;3.72;;
36189;SDS011;22232;50.914;13.858;2023-11-21T02:11:13;9.98;;;4.18;;
36189;SDS011;22232;50.914;13.858;2023-11-21T02:13:41;7.72;;;3.38;;
36189;SDS011;22232;50.914;13.858;2023-11-21T02:16:14;7.68;;;3.92;;
36189;SDS011;22232;50.914;13.858;2023-11-21T02:18:42;10.40;;;3.67;;
36189;SDS011;22232;50.914;13.858;2023-11-21T02:21:10;10.20;;;3.70;;
36189;SDS011;22232;50.914;13.858;2023-11-21T02:23:37;7.10;;;3.65;;
36189;SDS011;22232;50.914;13.858;2023-11-21T02:26:09;8.02;;;4.05;;
36189;SDS011;22232;50.914;13.858;2023-11-21T02:28:38;10.15;;;3.75;;
36189;SDS011;22232;50.914;13.858;2023-11-21T02:31:06;8.10;;;2.97;;
36189;SDS011;22232;50.914;13.858;2023-11-21T02:33:34;9.98;;;3.40;;
36189;SDS011;22232;50.914;13.858;2023-11-21T02:36:02;10.18;;;3.78;;
36189;SDS011;22232;50.914;13.858;2023-11-21T02:38:30;7.88;;;2.97;;
36189;SDS011;22232;50.914;13.858;2023-11-21T02:40:58;7.93;;;3.45;;
36189;SDS011;22232;50.914;13.858;2023-11-21T02:43:28;5.70;;;2.80;;
36189;SDS011;22232;50.914;13.858;2023-11-21T02:45:56;8.23;;;3.28;;
36189;SDS011;22232;50.914;13.858;2023-11-21T02:48:24;8.80;;;3.30;;
36189;SDS011;22232;50.914;13.858;2023-11-21T02:50:52;10.07;;;3.10;;
36189;SDS011;22232;50.914;13.858;2023-11-21T02:53:20;12.23;;;3.22;;
36189;SDS011;22232;50.914;13.858;2023-11-21T02:55:48;6.53;;;2.97;;
36189;SDS011;22232;50.914;13.858;2023-11-21T02:58:15;9.73;;;2.95;;
36189;SDS011;22232;50.914;13.858;2023-11-21T03:00:43;4.70;;;2.60;;
36189;SDS011;22232;50.914;13.858;2023-11-21T03:03:11;5.15;;;3.00;;
36189;SDS011;22232;50.914;13.858;2023-11-21T03:05:39;8.65;;;3.00;;
36189;SDS011;22232;50.914;13.858;2023-11-21T03:08:06;8.32;;;2.85;;
36189;SDS011;22232;50.914;13.858;2023-11-21T03:10:34;9.38;;;3.03;;
36189;SDS011;22232;50.914;13.858;2023-11-21T03:13:01;9.68;;;2.90;;
36189;SDS011;22232;50.914;13.858;2023-11-21T03:15:30;5.18;;;2.33;;
36189;SDS011;22232;50.914;13.858;2023-11-21T03:18:00;10.85;;;3.40;;
36189;SDS011;22232;50.914;13.858;2023-11-21T03:20:27;6.40;;;2.67;;
36189;SDS011;22232;50.914;13.858;2023-11-21T03:22:56;4.70;;;2.47;;
36189;SDS011;22232;50.914;13.858;2023-11-21T03:25:24;6.30;;;2.60;;
36189;SDS011;22232;50.914;13.858;2023-11-21T03:27:52;8.13;;;2.80;;
36189;SDS011;22232;50.914;13.858;2023-11-21T03:30:20;9.45;;;2.63;;
36189;SDS011;22232;50.914;13.858;2023-11-21T03:32:48;5.32;;;3.15;;
36189;SDS011;22232;50.914;13.858;2023-11-21T03:35:16;8.05;;;2.58;;
36189;SDS011;22232;50.914;13.858;2023-11-21T03:37:43;5.15;;;2.95;;
36189;SDS011;22232;50.914;13.858;2023-11-21T03:40:11;7.45;;;2.88;;
36189;SDS011;22232;50.914;13.858;2023-11-21T03:42:40;6.63;;;3.13;;
36189;SDS011;22232;50.914;13.858;2023-11-21T03:45:08;6.32;;;3.78;;
36189;SDS011;22232;50.914;13.858;2023-11-21T03:47:36;7.15;;;3.03;;
36189;SDS011;22232;50.914;13.858;2023-11-21T03:50:04;7.88;;;2.97;;
36189;SDS011;22232;50.914;13.858;2023-11-21T03:52:32;7.13;;;3.40;;
36189;SDS011;22232;50.914;13.858;2023-11-21T03:55:01;8.75;;;3.38;;
36189;SDS011;22232;50.914;13.858;2023-11-21T03:57:29;7.43;;;3.40;;
36189;SDS011;22232;50.914;13.858;2023-11-21T03:59:57;8.35;;;3.40;;
36189;SDS011;22232;50.914;13.858;2023-11-21T04:02:25;5.25;;;2.90;;
36189;SDS011;22232;50.914;13.858;2023-11-21T04:04:53;10.35;;;3.25;;
36189;SDS011;22232;50.914;13.858;2023-11-21T04:07:21;5.55;;;2.83;;
36189;SDS011;22232;50.914;13.858;2023-11-21T04:09:49;8.55;;;3.42;;
36189;SDS011;22232;50.914;13.858;2023-11-21T04:12:16;5.50;;;3.00;;
36189;SDS011;22232;50.914;13.858;2023-11-21T04:14:44;9.35;;;3.22;;
36189;SDS011;22232;50.914;13.858;2023-11-21T04:17:11;6.22;;;3.50;;
36189;SDS011;22232;50.914;13.858;2023-11-21T04:19:39;6.47;;;3.17;;
36189;SDS011;22232;50.914;13.858;2023-11-21T04:22:07;7.10;;;3.35;;
36189;SDS011;22232;50.914;13.858;2023-11-21T04:24:34;7.85;;;3.75;;
36189;SDS011;22232;50.914;13.858;2023-11-21T04:27:02;8.55;;;4.00;;
36189;SDS011;22232;50.914;13.858;2023-11-21T04:29:29;14.20;;;4.15;;
36189;SDS011;22232;50.914;13.858;2023-11-21T04:31:57;10.52;;;4.22;;
36189;SDS011;22232;50.914;13.858;2023-11-21T04:34:25;7.05;;;3.83;;
36189;SDS011;22232;50.914;13.858;2023-11-21T04:36:52;8.95;;;4.07;;
36189;SDS011;22232;50.914;13.858;2023-11-21T04:39:20;7.07;;;3.17;;
36189;SDS011;22232;50.914;13.858;2023-11-21T04:41:47;6.63;;;3.88;;
36189;SDS011;22232;50.914;13.858;2023-11-21T04:44:15;10.23;;;4.00;;
36189;SDS011;22232;50.914;13.858;2023-11-21T04:46:44;7.07;;;4.10;;
36189;SDS011;22232;50.914;13.858;2023-11-21T04:49:12;8.90;;;3.70;;
36189;SDS011;22232;50.914;13.858;2023-11-21T04:51:39;9.90;;;4.50;;
36189;SDS011;22232;50.914;13.858;2023-11-21T04:54:07;14.10;;;4.68;;
36189;SDS011;22232;50.914;13.858;2023-11-21T04:56:34;12.40;;;4.72;;
36189;SDS011;22232;50.914;13.858;2023-11-21T04:59:02;10.63;;;4.78;;
36189;SDS011;22232;50.914;13.858;2023-11-21T05:01:29;10.43;;;4.53;;
36189;SDS011;22232;50.914;13.858;2023-11-21T05:03:57;8.73;;;4.50;;
36189;SDS011;22232;50.914;13.858;2023-11-21T05:06:25;9.55;;;4.25;;
36189;SDS011;22232;50.914;13.858;2023-11-21T05:08:52;15.90;;;4.70;;
36189;SDS011;22232;50.914;13.858;2023-11-21T05:11:26;10.88;;;4.18;;
36189;SDS011;22232;50.914;13.858;2023-11-21T05:13:54;8.35;;;4.18;;
36189;SDS011;22232;50.914;13.858;2023-11-21T05:16:26;15.68;;;5.45;;
36189;SDS011;22232;50.914;13.858;2023-11-21T05:18:57;12.98;;;4.35;;
36189;SDS011;22232;50.914;13.858;2023-11-21T05:21:28;13.13;;;4.38;;
36189;SDS011;22232;50.914;13.858;2023-11-21T05:23:57;9.55;;;3.88;;
36189;SDS011;22232;50.914;13.858;2023-11-21T05:26:24;8.38;;;4.05;;
36189;SDS011;22232;50.914;13.858;2023-11-21T05:28:52;12.85;;;4.32;;
36189;SDS011;22232;50.914;13.858;2023-11-21T05:31:19;11.45;;;4.20;;
36189;SDS011;22232;50.914;13.858;2023-11-21T05:33:47;10.85;;;4.40;;
36189;SDS011;22232;50.914;13.858;2023-11-21T05:36:15;11.90;;;4.43;;
36189;SDS011;22232;50.914;13.858;2023-11-21T05:38:42;11.38;;;4.00;;
36189;SDS011;22232;50.914;13.858;2023-11-21T05:41:10;9.98;;;4.55;;
36189;SDS011;22232;50.914;13.858;2023-11-21T05:43:41;10.45;;;4.68;;
36189;SDS011;22232;50.914;13.858;2023-11-21T05:46:08;12.32;;;4.57;;
36189;SDS011;22232;50.914;13.858;2023-11-21T05:48:36;16.95;;;4.60;;
36189;SDS011;22232;50.914;13.858;2023-11-21T05:51:07;11.25;;;4.05;;
36189;SDS011;22232;50.914;13.858;2023-11-21T05:53:35;10.27;;;4.53;;
36189;SDS011;22232;50.914;13.858;2023-11-21T05:56:03;11.35;;;4.45;;
36189;SDS011;22232;50.914;13.858;2023-11-21T05:58:31;12.52;;;4.38;;
36189;SDS011;22232;50.914;13.858;2023-11-21T06:00:58;10.32;;;4.35;;
36189;SDS011;22232;50.914;13.858;2023-11-21T06:03:26;17.67;;;4.57;;
36189;SDS011;22232;50.914;13.858;2023-11-21T06:05:54;7.75;;;4.03;;
36189;SDS011;22232;50.914;13.858;2023-11-21T06:08:21;10.98;;;3.92;;
36189;SDS011;22232;50.914;13.858;2023-11-21T06:10:49;12.20;;;4.60;;
36189;SDS011;22232;50.914;13.858;2023-11-21T06:13:17;7.63;;;3.90;;
36189;SDS011;22232;50.914;13.858;2023-11-21T06:15:47;10.15;;;4.18;;
36189;SDS011;22232;50.914;13.858;2023-11-21T06:18:15;16.88;;;4.65;;
36189;SDS011;22232;50.914;13.858;2023-11-21T06:20:43;11.48;;;4.30;;
36189;SDS011;22232;50.914;13.858;2023-11-21T06:23:10;9.93;;;4.07;;
36189;SDS011;22232;50.914;13.858;2023-11-21T06:25:38;12.82;;;4.72;;
36189;SDS011;22232;50.914;13.858;2023-11-21T06:28:06;11.85;;;4.50;;
36189;SDS011;22232;50.914;13.858;2023-11-21T06:30:34;12.73;;;4.85;;
36189;SDS011;22232;50.914;13.858;2023-11-21T06:33:01;10.63;;;4.68;;
36189;SDS011;22232;50.914;13.858;2023-11-21T06:35:29;20.95;;;4.80;;
36189;SDS011;22232;50.914;13.858;2023-11-21T06:37:59;19.35;;;4.93;;
36189;SDS011;22232;50.914;13.858;2023-11-21T06:40:27;12.20;;;4.57;;
36189;SDS011;22232;50.914;13.858;2023-11-21T06:42:55;10.23;;;4.20;;
36189;SDS011;22232;50.914;13.858;2023-11-21T06:45:22;11.05;;;4.32;;
36189;SDS011;22232;50.914;13.858;2023-11-21T06:47:50;12.48;;;4.80;;
36189;SDS011;22232;50.914;13.858;2023-11-21T06:50:18;10.60;;;4.57;;
36189;SDS011;22232;50.914;13.858;2023-11-21T06:52:46;12.57;;;4.57;;
36189;SDS011;22232;50.914;13.858;2023-11-21T06:55:14;13.20;;;4.60;;
36189;SDS011;22232;50.914;13.858;2023-11-21T06:57:43;12.30;;;5.32;;
36189;SDS011;22232;50.914;13.858;2023-11-21T07:00:12;11.55;;;4.65;;
36189;SDS011;22232;50.914;13.858;2023-11-21T07:02:42;14.63;;;5.05;;
36189;SDS011;22232;50.914;13.858;2023-11-21T07:05:10;9.13;;;4.93;;
36189;SDS011;22232;50.914;13.858;2023-11-21T07:07:38;11.60;;;5.00;;
36189;SDS011;22232;50.914;13.858;2023-11-21T07:10:05;12.23;;;4.63;;
36189;SDS011;22232;50.914;13.858;2023-11-21T07:12:35;9.55;;;5.10;;
36189;SDS011;22232;50.914;13.858;2023-11-21T07:15:03;14.27;;;4.82;;
36189;SDS011;22232;50.914;13.858;2023-11-21T07:17:32;17.63;;;5.68;;
36189;SDS011;22232;50.914;13.858;2023-11-21T07:20:02;11.15;;;4.68;;
36189;SDS011;22232;50.914;13.858;2023-11-21T07:22:30;14.95;;;5.60;;
36189;SDS011;22232;50.914;13.858;2023-11-21T07:24:58;18.60;;;4.50;;
36189;SDS011;22232;50.914;13.858;2023-11-21T07:27:25;14.30;;;4.70;;
36189;SDS011;22232;50.914;13.858;2023-11-21T07:29:53;15.15;;;5.03;;
36189;SDS011;22232;50.914;13.858;2023-11-21T07:32:20;10.43;;;4.30;;
36189;SDS011;22232;50.914;13.858;2023-11-21T07:34:48;14.05;;;5.18;;
36189;SDS011;22232;50.914;13.858;2023-11-21T07:37:16;12.65;;;5.32;;
36189;SDS011;22232;50.914;13.858;2023-11-21T07:39:43;13.43;;;5.03;;
36189;SDS011;22232;50.914;13.858;2023-11-21T07:42:11;16.77;;;5.57;;
36189;SDS011;22232;50.914;13.858;2023-11-21T07:44:39;11.90;;;5.32;;
36189;SDS011;22232;50.914;13.858;2023-11-21T07:47:06;12.05;;;5.05;;
36189;SDS011;22232;50.914;13.858;2023-11-21T07:49:34;13.02;;;6.18;;
36189;SDS011;22232;50.914;13.858;2023-11-21T07:52:02;16.13;;;5.47;;
36189;SDS011;22232;50.914;13.858;2023-11-21T07:54:29;16.40;;;7.38;;
36189;SDS011;22232;50.914;13.858;2023-11-21T07:56:57;19.00;;;6.20;;
36189;SDS011;22232;50.914;13.858;2023-11-21T07:59:25;14.63;;;5.07;;
36189;SDS011;22232;50.914;13.858;2023-11-21T08:01:52;12.13;;;5.93;;
36189;SDS011;22232;50.914;13.858;2023-11-21T08:04:20;18.00;;;6.22;;
36189;SDS011;22232;50.914;13.858;2023-11-21T08:06:47;15.95;;;5.53;;
36189;SDS011;22232;50.914;13.858;2023-11-21T08:09:15;16.00;;;6.43;;
36189;SDS011;22232;50.914;13.858;2023-11-21T08:11:44;14.95;;;6.15;;
36189;SDS011;22232;50.914;13.858;2023-11-21T08:14:13;12.35;;;6.32;;
36189;SDS011;22232;50.914;13.858;2023-11-21T08:16:42;19.90;;;6.55;;
36189;SDS011;22232;50.914;13.858;2023-11-21T08:19:10;13.50;;;5.88;;
36189;SDS011;22232;50.914;13.858;2023-11-21T08:21:38;13.30;;;6.03;;
36189;SDS011;22232;50.914;13.858;2023-11-21T08:24:07;16.10;;;7.22;;
36189;SDS011;22232;50.914;13.858;2023-11-21T08:26:38;20.27;;;7.35;;
36189;SDS011;22232;50.914;13.858;2023-11-21T08:29:05;16.20;;;7.05;;
36189;SDS011;22232;50.914;13.858;2023-11-21T08:31:34;15.13;;;6.63;;
36189;SDS011;22232;50.914;13.858;2023-11-21T08:34:02;18.52;;;7.93;;
36189;SDS011;22232;50.914;13.858;2023-11-21T08:36:30;18.13;;;7.60;;
36189;SDS011;22232;50.914;13.858;2023-11-21T08:38:58;19.15;;;7.40;;
36189;SDS011;22232;50.914;13.858;2023-11-21T08:41:26;19.48;;;7.35;;
36189;SDS011;22232;50.914;13.858;2023-11-21T08:43:55;18.80;;;7.97;;
36189;SDS011;22232;50.914;13.858;2023-11-21T08:46:23;16.52;;;7.35;;
36189;SDS011;22232;50.914;13.858;2023-11-21T08:48:53;20.00;;;7.82;;
36189;SDS011;22232;50.914;13.858;2023-11-21T08:51:20;20.50;;;7.70;;
36189;SDS011;22232;50.914;13.858;2023-11-21T08:53:48;16.30;;;7.90;;
36189;SDS011;22232;50.914;13.858;2023-11-21T08:56:15;22.67;;;8.55;;
36189;SDS011;22232;50.914;13.858;2023-11-21T08:58:43;16.20;;;7.68;;
36189;SDS011;22232;50.914;13.858;2023-11-21T09:01:11;20.63;;;6.72;;
36189;SDS011;22232;50.914;13.858;2023-11-21T09:03:39;13.65;;;6.78;;
36189;SDS011;22232;50.914;13.858;2023-11-21T09:06:07;17.75;;;7.07;;
36189;SDS011;22232;50.914;13.858;2023-11-21T09:08:39;15.07;;;6.30;;
36189;SDS011;22232;50.914;13.858;2023-11-21T09:11:07;18.38;;;6.95;;
36189;SDS011;22232;50.914;13.858;2023-11-21T09:13:35;17.00;;;7.45;;
36189;SDS011;22232;50.914;13.858;2023-11-21T09:16:03;18.20;;;6.63;;
36189;SDS011;22232;50.914;13.858;2023-11-21T09:18:31;14.98;;;6.50;;
36189;SDS011;22232;50.914;13.858;2023-11-21T09:20:59;18.45;;;7.20;;
36189;SDS011;22232;50.914;13.858;2023-11-21T09:23:26;12.55;;;6.15;;
36189;SDS011;22232;50.914;13.858;2023-11-21T09:25:54;15.93;;;6.22;;
36189;SDS011;22232;50.914;13.858;2023-11-21T09:28:24;11.05;;;4.80;;
36189;SDS011;22232;50.914;13.858;2023-11-21T09:30:53;8.38;;;4.50;;
36189;SDS011;22232;50.914;13.858;2023-11-21T09:33:21;9.75;;;4.40;;
36189;SDS011;22232;50.914;13.858;2023-11-21T09:35:52;12.82;;;5.22;;
36189;SDS011;22232;50.914;13.858;2023-11-21T09:38:19;7.85;;;5.25;;
36189;SDS011;22232;50.914;13.858;2023-11-21T09:40:47;11.68;;;5.47;;
36189;SDS011;22232;50.914;13.858;2023-11-21T09:43:16;10.73;;;4.93;;
36189;SDS011;22232;50.914;13.858;2023-11-21T09:45:46;14.50;;;4.97;;
36189;SDS011;22232;50.914;13.858;2023-11-21T09:48:15;7.15;;;4.95;;
36189;SDS011;22232;50.914;13.858;2023-11-21T09:50:44;12.38;;;5.47;;
36189;SDS011;22232;50.914;13.858;2023-11-21T09:53:18;8.88;;;4.40;;
36189;SDS011;22232;50.914;13.858;2023-11-21T09:55:52;9.65;;;4.32;;
36189;SDS011;22232;50.914;13.858;2023-11-21T09:58:20;7.32;;;4.55;;
36189;SDS011;22232;50.914;13.858;2023-11-21T10:00:53;8.75;;;4.20;;
36189;SDS011;22232;50.914;13.858;2023-11-21T10:03:24;8.82;;;4.22;;
36189;SDS011;22232;50.914;13.858;2023-11-21T10:05:52;12.82;;;6.47;;
36189;SDS011;22232;50.914;13.858;2023-11-21T10:08:23;15.75;;;7.53;;
36189;SDS011;22232;50.914;13.858;2023-11-21T10:11:12;7.53;;;4.47;;
36189;SDS011;22232;50.914;13.858;2023-11-21T10:13:42;8.27;;;4.95;;
36189;SDS011;22232;50.914;13.858;2023-11-21T10:16:14;6.32;;;4.40;;
36189;SDS011;22232;50.914;13.858;2023-11-21T10:21:45;4.57;;;4.05;;
36189;SDS011;22232;50.914;13.858;2023-11-21T10:24:13;4.63;;;3.70;;
36189;SDS011;22232;50.914;13.858;2023-11-21T10:26:40;6.75;;;3.90;;
36189;SDS011;22232;50.914;13.858;2023-11-21T10:29:19;6.50;;;3.88;;
36189;SDS011;22232;50.914;13.858;2023-11-21T10:31:50;7.95;;;4.90;;
36189;SDS011;22232;50.914;13.858;2023-11-21T10:34:19;6.53;;;4.55;;
36189;SDS011;22232;50.914;13.858;2023-11-21T10:36:47;8.82;;;5.10;;
36189;SDS011;22232;50.914;13.858;2023-11-21T10:39:19;6.35;;;4.72;;
36189;SDS011;22232;50.914;13.858;2023-11-21T10:41:48;7.90;;;4.30;;
36189;SDS011;22232;50.914;13.858;2023-11-21T10:44:19;7.30;;;5.32;;
36189;SDS011;22232;50.914;13.858;2023-11-21T10:46:55;10.43;;;5.65;;
36189;SDS011;22232;50.914;13.858;2023-11-21T10:49:25;141.88;;;15.95;;
36189;SDS011;22232;50.914;13.858;2023-11-21T10:51:54;117.15;;;14.52;;
36189;SDS011;22232;50.914;13.858;2023-11-21T10:54:24;239.55;;;24.98;;
36189;SDS011;22232;50.914;13.858;2023-11-21T10:56:58;78.35;;;13.43;;
36189;SDS011;22232;50.914;13.858;2023-11-21T10:59:30;353.33;;;29.97;;
36189;SDS011;22232;50.914;13.858;2023-11-21T11:02:00;587.70;;;46.53;;
36189;SDS011;22232;50.914;13.858;2023-11-21T11:04:31;155.35;;;16.67;;
36189;SDS011;22232;50.914;13.858;2023-11-21T11:07:01;385.48;;;31.23;;
36189;SDS011;22232;50.914;13.858;2023-11-21T11:09:32;403.25;;;34.47;;
36189;SDS011;22232;50.914;13.858;2023-11-21T11:12:03;415.52;;;34.65;;
36189;SDS011;22232;50.914;13.858;2023-11-21T11:14:34;228.98;;;22.27;;
36189;SDS011;22232;50.914;13.858;2023-11-21T11:17:01;244.57;;;22.98;;
36189;SDS011;22232;50.914;13.858;2023-11-21T11:19:31;22.20;;;9.25;;
36189;SDS011;22232;50.914;13.858;2023-11-21T11:38:48;452.30;;;40.15;;
36189;SDS011;22232;50.914;13.858;2023-11-21T11:41:26;319.20;;;28.60;;
36189;SDS011;22232;50.914;13.858;2023-11-21T11:44:02;453.50;;;42.50;;
36189;SDS011;22232;50.914;13.858;2023-11-21T11:46:41;297.55;;;29.50;;
36189;SDS011;22232;50.914;13.858;2023-11-21T11:49:10;231.68;;;27.73;;
36189;SDS011;22232;50.914;13.858;2023-11-21T11:51:38;97.03;;;17.75;;
36189;SDS011;22232;50.914;13.858;2023-11-21T11:54:06;29.33;;;12.80;;
36189;SDS011;22232;50.914;13.858;2023-11-21T11:56:34;30.13;;;10.30;;
36189;SDS011;22232;50.914;13.858;2023-11-21T11:59:03;23.15;;;10.20;;
36189;SDS011;22232;50.914;13.858;2023-11-21T12:01:32;21.73;;;10.95;;
36189;SDS011;22232;50.914;13.858;2023-11-21T12:04:47;20.05;;;10.27;;
36189;SDS011;22232;50.914;13.858;2023-11-21T12:06:51;21.23;;;10.13;;
36189;SDS011;22232;50.914;13.858;2023-11-21T12:09:20;23.35;;;9.80;;
36189;SDS011;22232;50.914;13.858;2023-11-21T12:11:49;20.48;;;9.60;;
36189;SDS011;22232;50.914;13.858;2023-11-21T12:14:17;21.17;;;10.98;;
36189;SDS011;22232;50.914;13.858;2023-11-21T12:16:45;20.85;;;10.25;;
36189;SDS011;22232;50.914;13.858;2023-11-21T12:19:12;17.80;;;10.00;;
36189;SDS011;22232;50.914;13.858;2023-11-21T12:21:40;18.70;;;10.55;;
36189;SDS011;22232;50.914;13.858;2023-11-21T12:24:08;21.52;;;10.60;;
36189;SDS011;22232;50.914;13.858;2023-11-21T12:26:36;18.30;;;10.85;;
36189;SDS011;22232;50.914;13.858;2023-11-21T12:29:04;19.77;;;10.23;;
36189;SDS011;22232;50.914;13.858;2023-11-21T12:31:34;18.83;;;11.10;;
36189;SDS011;22232;50.914;13.858;2023-11-21T12:34:03;19.63;;;10.90;;
36189;SDS011;22232;50.914;13.858;2023-11-21T12:36:34;21.20;;;10.85;;
36189;SDS011;22232;50.914;13.858;2023-11-21T12:39:02;20.30;;;10.70;;
36189;SDS011;22232;50.914;13.858;2023-11-21T12:41:30;17.30;;;9.57;;
36189;SDS011;22232;50.914;13.858;2023-11-21T12:43:58;24.65;;;12.18;;
36189;SDS011;22232;50.914;13.858;2023-11-21T12:46:26;19.80;;;11.60;;
36189;SDS011;22232;50.914;13.858;2023-11-21T12:48:56;23.45;;;12.43;;
36189;SDS011;22232;50.914;13.858;2023-11-21T12:51:25;22.65;;;12.05;;
36189;SDS011;22232;50.914;13.858;2023-11-21T12:53:52;21.30;;;12.23;;
36189;SDS011;22232;50.914;13.858;2023-11-21T12:56:21;23.58;;;11.93;;
36189;SDS011;22232;50.914;13.858;2023-11-21T12:58:53;24.15;;;12.80;;
36189;SDS011;22232;50.914;13.858;2023-11-21T13:03:56;24.50;;;13.25;;
36189;SDS011;22232;50.914;13.858;2023-11-21T13:06:29;26.60;;;13.32;;
36189;SDS011;22232;50.914;13.858;2023-11-21T13:09:01;25.40;;;13.63;;
36189;SDS011;22232;50.914;13.858;2023-11-21T13:11:34;25.05;;;13.68;;
36189;SDS011;22232;50.914;13.858;2023-11-21T13:14:01;24.38;;;11.88;;
36189;SDS011;22232;50.914;13.858;2023-11-21T13:16:30;20.48;;;11.02;;
36189;SDS011;22232;50.914;13.858;2023-11-21T13:18:58;19.98;;;10.63;;
36189;SDS011;22232;50.914;13.858;2023-11-21T13:21:26;20.33;;;10.18;;
36189;SDS011;22232;50.914;13.858;2023-11-21T13:23:54;19.95;;;10.13;;
36189;SDS011;22232;50.914;13.858;2023-11-21T13:26:23;19.45;;;10.75;;
36189;SDS011;22232;50.914;13.858;2023-11-21T13:28:53;17.80;;;9.77;;
36189;SDS011;22232;50.914;13.858;2023-11-21T13:31:20;16.58;;;9.25;;
36189;SDS011;22232;50.914;13.858;2023-11-21T13:33:50;16.98;;;9.40;;
36189;SDS011;22232;50.914;13.858;2023-11-21T13:36:26;19.25;;;10.70;;
36189;SDS011;22232;50.914;13.858;2023-11-21T13:38:57;18.08;;;9.75;;
36189;SDS011;22232;50.914;13.858;2023-11-21T13:41:35;16.95;;;9.55;;
36189;SDS011;22232;50.914;13.858;2023-11-21T13:44:06;27.77;;;16.45;;
36189;SDS011;22232;50.914;13.858;2023-11-21T13:46:53;20.70;;;10.93;;
36189;SDS011;22232;50.914;13.858;2023-11-21T13:49:24;24.20;;;12.40;;
36189;SDS011;22232;50.914;13.858;2023-11-21T13:51:54;22.20;;;11.52;;
36189;SDS011;22232;50.914;13.858;2023-11-21T13:54:22;21.98;;;11.30;;
36189;SDS011;22232;50.914;13.858;2023-11-21T13:56:52;24.23;;;11.90;;
36189;SDS011;22232;50.914;13.858;2023-11-21T13:59:20;22.38;;;12.05;;
36189;SDS011;22232;50.914;13.858;2023-11-21T14:01:50;23.52;;;11.48;;
36189;SDS011;22232;50.914;13.858;2023-11-21T14:04:24;18.42;;;10.35;;
36189;SDS011;22232;50.914;13.858;2023-11-21T14:07:23;24.52;;;13.15;;
36189;SDS011;22232;50.914;13.858;2023-11-21T14:10:03;19.98;;;11.35;;
36189;SDS011;22232;50.914;13.858;2023-11-21T14:12:40;22.88;;;12.63;;
36189;SDS011;22232;50.914;13.858;2023-11-21T14:15:10;32.40;;;14.32;;
36189;SDS011;22232;50.914;13.858;2023-11-21T14:17:39;34.28;;;14.75;;
36189;SDS011;22232;50.914;13.858;2023-11-21T14:20:09;26.02;;;13.75;;
36189;SDS011;22232;50.914;13.858;2023-11-21T14:22:44;31.40;;;14.75;;
36189;SDS011;22232;50.914;13.858;2023-11-21T14:25:11;53.83;;;17.35;;
36189;SDS011;22232;50.914;13.858;2023-11-21T14:27:41;57.35;;;19.17;;
36189;SDS011;22232;50.914;13.858;2023-11-21T14:30:09;100.40;;;21.58;;
36189;SDS011;22232;50.914;13.858;2023-11-21T14:32:39;212.90;;;32.40;;
36189;SDS011;22232;50.914;13.858;2023-11-21T14:35:07;393.48;;;41.65;;
36189;SDS011;22232;50.914;13.858;2023-11-21T14:37:36;609.13;;;57.92;;
36189;SDS011;22232;50.914;13.858;2023-11-21T14:40:04;597.97;;;62.72;;
36189;SDS011;22232;50.914;13.858;2023-11-21T14:42:34;595.72;;;60.13;;
36189;SDS011;22232;50.914;13.858;2023-11-21T14:45:04;236.48;;;31.83;;
36189;SDS011;22232;50.914;13.858;2023-11-21T14:47:34;57.38;;;21.02;;
36189;SDS011;22232;50.914;13.858;2023-11-21T14:50:02;56.13;;;20.58;;
36189;SDS011;22232;50.914;13.858;2023-11-21T14:52:49;54.92;;;19.08;;
36189;SDS011;22232;50.914;13.858;2023-11-21T14:55:26;52.45;;;20.13;;